createdAt,value
2018-04-11T00:00:20.278Z,6.70
2018-04-11T00:04:53.464Z,6.70
2018-04-11T00:09:26.664Z,6.60
2018-04-11T00:13:59.841Z,6.70
2018-04-11T00:18:33.798Z,6.80
2018-04-11T00:23:07.002Z,6.80
2018-04-11T00:27:40.207Z,6.70
2018-04-11T00:32:13.432Z,6.60
2018-04-11T00:36:46.606Z,6.60
2018-04-11T00:41:20.001Z,6.60
2018-04-11T00:45:53.966Z,6.40
2018-04-11T00:50:27.234Z,6.30
2018-04-11T00:55:01.215Z,6.30
2018-04-11T00:59:34.382Z,6.20
2018-04-11T01:04:07.569Z,6.20
2018-04-11T01:08:41.531Z,6.10
2018-04-11T01:13:14.724Z,6.10
2018-04-11T01:17:47.901Z,6.00
2018-04-11T01:22:21.880Z,5.80
2018-04-11T01:26:55.074Z,5.70
2018-04-11T01:31:28.268Z,5.80
2018-04-11T01:36:01.447Z,5.80
2018-04-11T01:40:35.398Z,5.90
2018-04-11T01:45:08.656Z,5.90
2018-04-11T01:49:41.854Z,5.90
2018-04-11T01:54:15.066Z,5.90
2018-04-11T01:58:48.386Z,5.80
2018-04-11T02:03:21.601Z,5.60
2018-04-11T02:07:54.780Z,5.80
2018-04-11T02:12:27.982Z,5.90
2018-04-11T02:17:01.187Z,6.00
2018-04-11T02:21:34.361Z,6.10
2018-04-11T02:26:07.641Z,6.10
2018-04-11T02:30:41.605Z,6.10
2018-04-11T02:35:14.803Z,6.10
2018-04-11T02:39:47.999Z,6.20
2018-04-11T02:44:21.206Z,6.00
2018-04-11T02:48:54.371Z,6.00
2018-04-11T02:53:27.569Z,6.00
2018-04-11T02:58:00.760Z,5.90
2018-04-11T03:02:33.978Z,5.90
2018-04-11T03:07:07.160Z,5.90
2018-04-11T03:11:40.341Z,5.80
2018-04-11T03:16:14.302Z,5.80
2018-04-11T03:20:47.498Z,5.70
2018-04-11T03:25:20.682Z,5.80
2018-04-11T03:29:53.902Z,5.80
2018-04-11T03:34:27.090Z,5.80
2018-04-11T03:39:01.042Z,5.20
2018-04-11T03:43:34.233Z,5.10
2018-04-11T03:48:07.470Z,5.10
2018-04-11T03:52:40.639Z,4.90
2018-04-11T03:57:13.844Z,4.90
2018-04-11T04:01:47.007Z,4.70
2018-04-11T04:06:20.202Z,4.60
2018-04-11T04:10:53.399Z,4.70
2018-04-11T04:15:38.617Z,4.60
2018-04-11T04:20:23.699Z,4.70
2018-04-11T04:24:56.893Z,4.80
2018-04-11T04:29:30.079Z,4.70
2018-04-11T04:34:03.261Z,4.70
2018-04-11T04:38:36.453Z,4.80
2018-04-11T04:43:10.406Z,4.60
2018-04-11T04:47:43.613Z,4.50
2018-04-11T04:52:16.826Z,4.60
2018-04-11T04:56:49.990Z,4.50
2018-04-11T05:01:23.943Z,4.50
2018-04-11T05:05:57.155Z,4.40
2018-04-11T05:10:30.327Z,4.40
2018-04-11T05:15:04.281Z,4.40
2018-04-11T05:19:37.469Z,4.30
2018-04-11T05:24:10.653Z,4.30
2018-04-11T05:28:44.607Z,4.20
2018-04-11T05:33:17.905Z,4.20
2018-04-11T05:37:51.097Z,4.30
2018-04-11T05:42:25.055Z,4.40
2018-04-11T05:46:58.267Z,4.40
2018-04-11T05:51:31.442Z,4.60
2018-04-11T05:56:05.428Z,4.50
2018-04-11T06:00:38.671Z,4.50
2018-04-11T06:05:11.887Z,4.60
2018-04-11T06:09:45.862Z,4.60
2018-04-11T06:14:19.025Z,4.60
2018-04-11T06:18:52.210Z,4.70
2018-04-11T06:23:26.161Z,4.90
2018-04-11T06:27:59.375Z,4.80
2018-04-11T06:32:32.584Z,4.90
2018-04-11T06:37:05.748Z,4.90
2018-04-11T06:41:39.701Z,5.30
2018-04-11T06:46:12.968Z,5.30
2018-04-11T06:50:46.113Z,5.40
2018-04-11T06:55:19.308Z,5.60
2018-04-11T06:59:52.527Z,5.70
2018-04-11T07:04:25.708Z,6.00
2018-04-11T07:08:59.669Z,6.20
2018-04-11T07:13:32.861Z,6.10
2018-04-11T07:18:06.053Z,6.20
2018-04-11T07:22:39.978Z,6.60
2018-04-11T07:27:13.938Z,6.90
2018-04-11T07:31:47.126Z,6.80
2018-04-11T07:36:20.359Z,6.90
2018-04-11T07:40:53.567Z,6.80
2018-04-11T07:45:26.758Z,7.00
2018-04-11T07:49:59.969Z,7.00
2018-04-11T07:54:33.201Z,7.10
2018-04-11T07:59:06.398Z,7.50
2018-04-11T08:03:39.643Z,7.70
2018-04-11T08:08:13.588Z,8.50
2018-04-11T08:12:46.810Z,8.40
2018-04-11T08:17:20.025Z,8.80
2018-04-11T08:21:53.270Z,8.80
2018-04-11T08:26:26.519Z,9.30
2018-04-11T08:30:59.743Z,10.20
2018-04-11T08:35:32.942Z,11.30
2018-04-11T08:40:06.217Z,12.80
2018-04-11T08:44:40.218Z,15.10
2018-04-11T08:49:13.397Z,15.00
2018-04-11T08:53:46.661Z,16.20
2018-04-11T08:58:20.630Z,17.20
2018-04-11T09:02:53.825Z,17.10
2018-04-11T09:07:27.038Z,17.60
2018-04-11T09:12:00.242Z,18.30
2018-04-11T09:16:33.481Z,19.70
2018-04-11T09:21:06.704Z,20.90
2018-04-11T09:25:40.710Z,20.70
2018-04-11T09:30:14.846Z,20.70
2018-04-11T09:34:48.017Z,21.20
2018-04-11T09:39:21.236Z,20.80
2018-04-11T09:43:54.489Z,22.50
2018-04-11T09:48:28.437Z,23.00
2018-04-11T09:53:01.721Z,22.90
2018-04-11T09:57:35.706Z,22.30
2018-04-11T10:02:08.934Z,22.20
2018-04-11T10:06:42.263Z,22.40
2018-04-11T10:11:16.249Z,23.10
2018-04-11T10:15:49.464Z,23.00
2018-04-11T10:20:22.674Z,22.60
2018-04-11T10:24:55.870Z,23.20
2018-04-11T10:29:29.063Z,23.60
2018-04-11T10:34:02.263Z,24.00
2018-04-11T10:38:35.445Z,25.80
2018-04-11T10:43:08.633Z,23.60
2018-04-11T10:47:41.972Z,25.00
2018-04-11T10:52:15.161Z,24.90
2018-04-11T10:56:49.154Z,27.40
2018-04-11T11:01:23.148Z,27.30
2018-04-11T11:05:56.350Z,27.90
2018-04-11T11:10:29.641Z,25.80
2018-04-11T11:15:02.861Z,25.90
2018-04-11T11:19:36.102Z,26.40
2018-04-11T11:24:09.345Z,26.70
2018-04-11T11:28:43.291Z,27.00
2018-04-11T11:33:16.490Z,26.90
2018-04-11T11:37:49.715Z,27.70
2018-04-11T11:42:22.921Z,28.00
2018-04-11T11:46:56.158Z,26.30
2018-04-11T11:51:29.368Z,24.90
2018-04-11T11:56:02.602Z,25.20
2018-04-11T12:00:36.600Z,26.70
2018-04-11T12:05:09.802Z,26.60
2018-04-11T12:09:43.024Z,25.80
2018-04-11T12:14:16.287Z,24.50
2018-04-11T12:18:49.465Z,24.60
2018-04-11T12:23:23.425Z,24.40
2018-04-11T12:27:56.651Z,24.30
2018-04-11T12:32:29.999Z,25.30
2018-04-11T12:37:03.242Z,25.10
2018-04-11T12:41:36.403Z,25.80
2018-04-11T12:46:09.643Z,25.60
2018-04-11T12:50:43.036Z,25.00
2018-04-11T12:55:16.995Z,23.70
2018-04-11T12:59:50.212Z,23.60
2018-04-11T13:04:23.409Z,23.20
2018-04-11T13:08:56.628Z,23.80
2018-04-11T13:13:29.820Z,22.60
2018-04-11T13:18:03.023Z,22.30
2018-04-11T13:22:36.299Z,23.30
2018-04-11T13:27:10.261Z,22.50
2018-04-11T13:31:43.500Z,22.50
2018-04-11T13:36:16.685Z,22.40
2018-04-11T13:40:49.943Z,21.50
2018-04-11T13:45:23.935Z,21.20
2018-04-11T13:49:57.183Z,21.10
2018-04-11T13:54:31.110Z,20.80
2018-04-11T13:59:05.225Z,20.50
2018-04-11T14:03:39.206Z,20.60
2018-04-11T14:08:12.448Z,20.50
2018-04-11T14:12:46.457Z,19.40
2018-04-11T14:17:19.654Z,19.30
2018-04-11T14:21:52.851Z,19.80
2018-04-11T14:26:26.087Z,20.30
2018-04-11T14:30:59.278Z,20.10
2018-04-11T14:35:32.497Z,20.00
2018-04-11T14:40:05.779Z,20.00
2018-04-11T14:44:38.968Z,20.10
2018-04-11T14:49:12.165Z,20.30
2018-04-11T14:53:45.404Z,20.70
2018-04-11T14:58:18.655Z,20.30
2018-04-11T15:02:52.857Z,20.00
2018-04-11T15:07:26.150Z,20.00
2018-04-11T15:11:59.314Z,20.00
2018-04-11T15:16:33.314Z,19.30
2018-04-11T15:21:07.327Z,19.30
2018-04-11T15:25:40.527Z,19.00
2018-04-11T15:30:13.729Z,18.90
2018-04-11T15:34:46.892Z,19.30
2018-04-11T15:39:20.090Z,19.30
2018-04-11T15:43:54.038Z,19.50
2018-04-11T15:48:27.237Z,19.40
2018-04-11T15:53:00.469Z,19.10
2018-04-11T15:57:33.690Z,19.10
2018-04-11T16:02:06.887Z,18.90
2018-04-11T16:06:40.091Z,18.60
2018-04-11T16:11:13.451Z,18.90
2018-04-11T16:15:46.716Z,19.20
2018-04-11T16:20:19.943Z,19.10
2018-04-11T16:24:53.942Z,18.90
2018-04-11T16:29:27.169Z,18.80
2018-04-11T16:34:01.150Z,18.90
2018-04-11T16:38:34.443Z,18.90
2018-04-11T16:43:07.607Z,18.80
2018-04-11T16:47:42.330Z,18.60
2018-04-11T16:52:15.535Z,18.60
2018-04-11T16:56:48.760Z,18.70
2018-04-11T17:01:21.966Z,18.40
2018-04-11T17:05:55.734Z,18.40
2018-04-11T17:10:28.935Z,18.10
2018-04-11T17:15:02.143Z,18.10
2018-04-11T17:19:35.334Z,18.30
2018-04-11T17:24:21.251Z,18.00
2018-04-11T17:29:07.464Z,17.80
2018-04-11T17:33:41.231Z,17.80
2018-04-11T17:38:14.436Z,17.80
2018-04-11T17:42:47.622Z,17.60
2018-04-11T17:47:20.860Z,17.40
2018-04-11T17:51:54.665Z,17.20
2018-04-11T17:56:27.918Z,17.00
2018-04-11T18:01:01.175Z,17.00
2018-04-11T18:05:34.421Z,16.90
2018-04-11T18:10:08.386Z,16.60
2018-04-11T18:14:41.607Z,16.50
2018-04-11T18:19:14.983Z,16.50
2018-04-11T18:23:48.205Z,16.30
2018-04-11T18:28:21.462Z,16.20
2018-04-11T18:32:54.705Z,16.10
2018-04-11T18:37:27.964Z,16.10
2018-04-11T18:42:01.316Z,15.90
2018-04-11T18:46:35.303Z,15.80
2018-04-11T18:51:08.503Z,15.70
2018-04-11T18:55:41.705Z,15.70
2018-04-11T19:00:14.921Z,15.60
2018-04-11T19:04:48.114Z,15.50
2018-04-11T19:09:21.503Z,15.40
2018-04-11T19:13:54.821Z,15.30
2018-04-11T19:18:28.029Z,15.20
2018-04-11T19:23:01.243Z,15.10
2018-04-11T19:27:34.507Z,15.00
2018-04-11T19:32:08.447Z,14.80
2018-04-11T19:36:41.687Z,14.80
2018-04-11T19:41:14.953Z,14.70
2018-04-11T19:45:48.951Z,14.60
2018-04-11T19:50:22.152Z,14.50
2018-04-11T19:54:55.362Z,14.50
2018-04-11T19:59:29.355Z,14.30
2018-04-11T20:04:02.519Z,14.30
2018-04-11T20:08:36.495Z,14.20
2018-04-11T20:13:09.887Z,14.10
2018-04-11T20:17:44.209Z,14.10
2018-04-11T20:22:18.280Z,14.00
2018-04-11T20:26:51.545Z,13.90
2018-04-11T20:31:24.898Z,13.80
2018-04-11T20:35:58.349Z,13.80
2018-04-11T20:40:31.694Z,13.60
2018-04-11T20:45:04.950Z,13.20
2018-04-11T20:49:38.390Z,12.90
2018-04-11T20:54:11.905Z,12.70
2018-04-11T20:58:45.406Z,12.70
2018-04-11T21:03:19.366Z,12.50
2018-04-11T21:07:52.599Z,12.40
2018-04-11T21:12:25.838Z,12.30
2018-04-11T21:16:59.571Z,12.20
2018-04-11T21:21:33.659Z,11.90
2018-04-11T21:26:07.008Z,11.80
2018-04-11T21:30:40.235Z,11.90
2018-04-11T21:35:13.633Z,11.80
2018-04-11T21:39:46.866Z,11.60
2018-04-11T21:44:20.059Z,11.50
2018-04-11T21:48:54.880Z,11.60
2018-04-11T21:53:28.387Z,11.70
2018-04-11T21:58:02.572Z,11.70
2018-04-11T22:02:35.847Z,11.70
2018-04-11T22:07:09.236Z,11.70
2018-04-11T22:11:43.290Z,11.50
2018-04-11T22:16:16.551Z,11.40
2018-04-11T22:20:50.574Z,11.10
2018-04-11T22:25:24.726Z,10.90
2018-04-11T22:29:58.021Z,10.90
2018-04-11T22:34:31.244Z,10.80
2018-04-11T22:39:05.235Z,10.80
2018-04-11T22:43:38.483Z,10.70
2018-04-11T22:48:11.708Z,10.80
2018-04-11T22:52:44.936Z,10.70
2018-04-11T22:57:18.191Z,10.60
2018-04-11T23:01:52.375Z,10.30
2018-04-11T23:06:25.569Z,10.30
2018-04-11T23:10:58.788Z,10.20
2018-04-11T23:15:33.024Z,10.20
2018-04-11T23:20:06.214Z,10.20
2018-04-11T23:24:39.480Z,10.00
2018-04-11T23:29:13.485Z,9.90
2018-04-11T23:33:46.646Z,9.80
2018-04-11T23:38:20.219Z,9.90
2018-04-11T23:42:53.452Z,9.90
2018-04-11T23:47:26.670Z,9.90
2018-04-11T23:51:59.909Z,9.70
2018-04-11T23:56:33.138Z,9.60
